Погода Эппл-Вэллина неделю

Калифорния, США

01 - 07 сентября
  • 01сентября
    Сегодня
    +14°
    +32°
    Ясно и безоблачно
    ВремяПогодаТемператураВлажностьДавлениеВетер, м/сВероятность осадков
    02:00Ясно и безоблачно+20°C36 %685 мм4.4 м/с2 %
    05:00Ясно и безоблачно+17°C41 %684 мм3.7 м/с2 %
    08:00Ясно и безоблачно+19°C34 %686 мм2.4 м/с2 %
    11:00Ясно и безоблачно+32°C15 %688 мм4.2 м/с2 %
    14:00Ясно и безоблачно+32°C13 %688 мм7.1 м/с2 %
    17:00Ясно и безоблачно+31°C13 %686 мм9.4 м/с2 %
    20:00Ясно и безоблачно+24°C20 %685 мм5.6 м/с2 %
    23:00Ясно и безоблачно+19°C30 %685 мм3.9 м/с2 %
  • 02сентября
    Среда
    +14°
    +31°
    Ясно и безоблачно
    ВремяПогодаТемператураВлажностьДавлениеВетер, м/сВероятность осадков
    02:00Ясно и безоблачно+17°C35 %685 мм4.1 м/с2 %
    05:00Ясно и безоблачно+14°C36 %684 мм3.2 м/с2 %
    08:00Ясно и безоблачно+17°C30 %686 мм2.6 м/с2 %
    11:00Ясно и безоблачно+27°C13 %687 мм3.1 м/с2 %
    14:00Ясно и безоблачно+31°C11 %687 мм5.2 м/с2 %
    17:00Ясно и безоблачно+30°C12 %686 мм6.8 м/с2 %
    20:00Ясно и безоблачно+23°C20 %685 мм4.3 м/с2 %
    23:00Ясно и безоблачно+19°C29 %685 мм3.7 м/с2 %
  • 03сентября
    Четверг
    +14°
    +32°
    Ясно и безоблачно
    ВремяПогодаТемператураВлажностьДавлениеВетер, м/сВероятность осадков
    02:00Ясно и безоблачно+17°C35 %685 мм3.5 м/с2 %
    05:00Ясно и безоблачно+15°C40 %684 мм3.4 м/с2 %
    08:00Ясно и безоблачно+18°C34 %685 мм3.1 м/с2 %
    11:00Ясно и безоблачно+27°C18 %686 мм2.7 м/с2 %
    14:00Ясно и безоблачно+31°C16 %685 мм5.6 м/с2 %
    17:00Ясно и безоблачно+30°C19 %684 мм8.6 м/с2 %
    20:00Ясно и безоблачно+23°C33 %683 мм4.8 м/с2 %
    23:00Ясно и безоблачно+19°C46 %683 мм4.0 м/с2 %
  • 04сентября
    Пятница
    +15°
    +32°
    Ясно и безоблачно
    ВремяПогодаТемператураВлажностьДавлениеВетер, м/сВероятность осадков
    02:00Ясно и безоблачно+17°C53 %683 мм4.1 м/с2 %
    05:00Ясно и безоблачно+15°C53 %682 мм2.9 м/с2 %
    08:00Ясно и безоблачно+18°C46 %684 мм2.6 м/с2 %
    11:00Ясно и безоблачно+28°C22 %686 мм3.1 м/с2 %
    14:00Ясно и безоблачно+32°C15 %685 мм6.7 м/с2 %
    17:00Ясно и безоблачно+30°C19 %685 мм9.2 м/с2 %
    20:00Ясно и безоблачно+23°C35 %684 мм5.4 м/с2 %
    23:00Ясно и безоблачно+19°C44 %684 мм2.9 м/с2 %
  • 05сентября
    Суббота
    +18°
    +33°
    Ясно и безоблачно
    ВремяПогодаТемператураВлажностьДавлениеВетер, м/сВероятность осадков
    02:00Ясно и безоблачно+17°C51 %684 мм3.4 м/с3 %
    05:00Ясно и безоблачно+15°C48 %684 мм2.4 м/с8 %
    08:00Ясно и безоблачно+19°C41 %685 мм1.8 м/с10 %
    11:00Ясно и безоблачно+29°C15 %687 мм3.3 м/с17 %
    14:00Ясно и безоблачно+33°C16 %687 мм7.5 м/с23 %
    17:00Ясно и безоблачно+32°C20 %686 мм8.7 м/с25 %
    20:00Ясно и безоблачно+26°C22 %686 мм5.9 м/с21 %
    23:00Ясно и безоблачно+22°C30 %686 мм2.8 м/с23 %
  • 06сентября
    Воскресенье
    +19°
    +31°
    Ясно и безоблачно
    ВремяПогодаТемператураВлажностьДавлениеВетер, м/сВероятность осадков
    05:00Облачно с прояснениями+19°C67 %685 мм2.2 м/с28 %
    11:00Ясно и безоблачно+28°C67 %687 мм1.9 м/с28 %
    17:00Ясно и безоблачно+29°C57 %685 мм5.8 м/с48 %
    23:00Ясно и безоблачно+23°C40 %686 мм2.6 м/с34 %
  • 07сентября
    Понедельник
    +18°
    +31°
    Ясно и безоблачно
    ВремяПогодаТемператураВлажностьДавлениеВетер, м/сВероятность осадков
    05:00Ясно и безоблачно+19°C44 %685 мм2.1 м/с19 %
    11:00Ясно и безоблачно+28°C15 %687 мм3.7 м/с16 %
    17:00Ясно и безоблачно+30°C11 %685 мм4.3 м/с39 %
    23:00Ясно и безоблачно+23°C34 %685 мм2.7 м/с23 %
Мы используем cookies
Соглашаюсь